Hlavní strana
METAR-TAF:

METAR-TAF

Letiště :

Dallas/Fort Worth International Airport

Dallas / Fort Worth, Texas, Spojené státy americké

zeměpisná šířka: 32-53-49N, zeměpisná délka: 097-01-19W, výška: 183 m

Aktuální stav počasí

Zpráva byla vytvořena před 1 hodinou a 3 minutami, v 21:53 UTC
Jižní vítr 12 kt
Teplota 21°C
Vlhkost vzduchu 26%
Tlak 1017 hPa
Viditelnost: 16.1 km
Skoro jasno ve výšce 25000 ft

METAR: KDFW 162153Z 18012KT 10SM FEW250 21/01 A3003 RMK AO2 SLP167 T02110011 $

Čas: 16:56 (22:56 UTC)

Předpověď počasí

Zpráva byla vytvořena před 1 hodinou a 45 minutami, v 21:11 UTC
Předpověď platná od 16 v 21 UTC do 17 v 24 UTC
Jižní vítr 10 kt
Viditelnost: 10 km
Polojasno ve výšce 30000 ft

TAF: KDFW 162111Z 1621/1724 19010KT P6SM SCT300

Stav a předpovědi počasí z více než 4 000 letišť (zprávy METAR a TAF).

Červené a žluté tečky na mapě představují dostupné meteorologické stanice.

Když kurzor umístíte na tečku, zobrazí se název stanice.

Pak kliknutím zobrazíte stav a předpověď počasí.

Chcete-li změnit mapu, kliknutím na zelené tlačítko se znaménkem +mapu přiblížíte, kliknutím na zelené tlačítko se znaménkem – mapu oddálíte a kliknutím na zelené šipky přejdete na sousední mapy.


METAR-TAF: